sensor_id;sensor_type;location;lat;lon;timestamp;temperature;humidity
21355;DHT22;10835;50.148;19.760;2022-11-22T00:01:21;19.20;42.90
21355;DHT22;10835;50.148;19.760;2022-11-22T00:03:49;19.20;43.00
21355;DHT22;10835;50.148;19.760;2022-11-22T00:06:17;18.80;42.90
21355;DHT22;10835;50.148;19.760;2022-11-22T00:08:45;18.90;43.40
21355;DHT22;10835;50.148;19.760;2022-11-22T00:11:15;19.10;42.70
21355;DHT22;10835;50.148;19.760;2022-11-22T00:13:43;19.00;42.70
21355;DHT22;10835;50.148;19.760;2022-11-22T00:16:11;18.80;42.80
21355;DHT22;10835;50.148;19.760;2022-11-22T00:18:39;18.20;43.10
21355;DHT22;10835;50.148;19.760;2022-11-22T00:21:07;17.90;43.70
21355;DHT22;10835;50.148;19.760;2022-11-22T00:23:35;17.90;44.10
21355;DHT22;10835;50.148;19.760;2022-11-22T00:26:03;18.00;44.30
21355;DHT22;10835;50.148;19.760;2022-11-22T00:28:34;17.70;44.40
21355;DHT22;10835;50.148;19.760;2022-11-22T00:31:02;18.00;44.10
21355;DHT22;10835;50.148;19.760;2022-11-22T00:33:30;18.10;44.10
21355;DHT22;10835;50.148;19.760;2022-11-22T00:35:58;18.20;43.70
21355;DHT22;10835;50.148;19.760;2022-11-22T00:38:26;18.50;42.60
21355;DHT22;10835;50.148;19.760;2022-11-22T00:40:54;18.60;42.10
21355;DHT22;10835;50.148;19.760;2022-11-22T00:43:22;18.10;42.50
21355;DHT22;10835;50.148;19.760;2022-11-22T00:45:51;17.60;43.20
21355;DHT22;10835;50.148;19.760;2022-11-22T00:48:19;17.60;43.70
21355;DHT22;10835;50.148;19.760;2022-11-22T00:50:50;17.50;44.30
21355;DHT22;10835;50.148;19.760;2022-11-22T00:53:18;17.40;44.30
21355;DHT22;10835;50.148;19.760;2022-11-22T00:55:47;17.20;44.60
21355;DHT22;10835;50.148;19.760;2022-11-22T00:58:15;16.90;45.20
21355;DHT22;10835;50.148;19.760;2022-11-22T01:00:43;16.80;45.90
21355;DHT22;10835;50.148;19.760;2022-11-22T01:03:13;16.90;46.60
21355;DHT22;10835;50.148;19.760;2022-11-22T01:05:41;16.80;47.50
21355;DHT22;10835;50.148;19.760;2022-11-22T01:08:09;17.30;47.50
21355;DHT22;10835;50.148;19.760;2022-11-22T01:10:37;17.40;46.90
21355;DHT22;10835;50.148;19.760;2022-11-22T01:13:09;17.60;47.00
21355;DHT22;10835;50.148;19.760;2022-11-22T01:15:38;18.10;45.90
21355;DHT22;10835;50.148;19.760;2022-11-22T01:18:08;18.00;45.10
21355;DHT22;10835;50.148;19.760;2022-11-22T01:20:38;17.50;45.00
21355;DHT22;10835;50.148;19.760;2022-11-22T01:23:09;17.90;45.60
21355;DHT22;10835;50.148;19.760;2022-11-22T01:25:37;18.20;44.80
21355;DHT22;10835;50.148;19.760;2022-11-22T01:28:05;18.60;44.40
21355;DHT22;10835;50.148;19.760;2022-11-22T01:30:33;18.70;43.50
21355;DHT22;10835;50.148;19.760;2022-11-22T01:33:01;18.60;43.00
21355;DHT22;10835;50.148;19.760;2022-11-22T01:35:29;18.80;42.40
21355;DHT22;10835;50.148;19.760;2022-11-22T01:37:58;19.00;42.60
21355;DHT22;10835;50.148;19.760;2022-11-22T01:40:26;19.20;42.70
21355;DHT22;10835;50.148;19.760;2022-11-22T01:42:56;19.30;42.10
21355;DHT22;10835;50.148;19.760;2022-11-22T01:45:44;19.20;41.80
21355;DHT22;10835;50.148;19.760;2022-11-22T01:48:21;19.10;41.60
21355;DHT22;10835;50.148;19.760;2022-11-22T01:50:52;19.10;41.80
21355;DHT22;10835;50.148;19.760;2022-11-22T01:53:28;19.20;41.70
21355;DHT22;10835;50.148;19.760;2022-11-22T01:55:58;19.10;41.50
21355;DHT22;10835;50.148;19.760;2022-11-22T01:58:29;19.10;41.60
21355;DHT22;10835;50.148;19.760;2022-11-22T02:01:02;19.10;41.70
21355;DHT22;10835;50.148;19.760;2022-11-22T02:03:32;18.80;41.80
21355;DHT22;10835;50.148;19.760;2022-11-22T02:06:01;18.90;41.70
21355;DHT22;10835;50.148;19.760;2022-11-22T02:08:35;18.40;42.00
21355;DHT22;10835;50.148;19.760;2022-11-22T02:11:05;18.50;42.80
21355;DHT22;10835;50.148;19.760;2022-11-22T02:13:38;18.80;42.30
21355;DHT22;10835;50.148;19.760;2022-11-22T02:16:09;18.70;41.70
21355;DHT22;10835;50.148;19.760;2022-11-22T02:18:38;18.10;42.20
21355;DHT22;10835;50.148;19.760;2022-11-22T02:21:07;18.10;42.50
21355;DHT22;10835;50.148;19.760;2022-11-22T02:23:44;18.30;41.80
21355;DHT22;10835;50.148;19.760;2022-11-22T02:26:18;18.20;41.90
21355;DHT22;10835;50.148;19.760;2022-11-22T02:28:46;18.20;41.50
21355;DHT22;10835;50.148;19.760;2022-11-22T02:31:34;18.40;41.50
21355;DHT22;10835;50.148;19.760;2022-11-22T02:34:03;18.50;41.00
21355;DHT22;10835;50.148;19.760;2022-11-22T02:36:36;18.40;41.30
21355;DHT22;10835;50.148;19.760;2022-11-22T02:39:05;18.40;41.60
21355;DHT22;10835;50.148;19.760;2022-11-22T02:41:36;18.20;41.80
21355;DHT22;10835;50.148;19.760;2022-11-22T02:44:05;18.30;42.10
21355;DHT22;10835;50.148;19.760;2022-11-22T02:46:34;18.40;41.20
21355;DHT22;10835;50.148;19.760;2022-11-22T02:49:04;18.40;40.70
21355;DHT22;10835;50.148;19.760;2022-11-22T02:51:32;18.30;41.10
21355;DHT22;10835;50.148;19.760;2022-11-22T02:54:00;18.10;41.90
21355;DHT22;10835;50.148;19.760;2022-11-22T02:56:28;18.10;42.60
21355;DHT22;10835;50.148;19.760;2022-11-22T02:58:57;18.10;42.30
21355;DHT22;10835;50.148;19.760;2022-11-22T03:01:25;18.30;43.10
21355;DHT22;10835;50.148;19.760;2022-11-22T03:03:53;18.40;42.80
21355;DHT22;10835;50.148;19.760;2022-11-22T03:06:21;18.00;42.70
21355;DHT22;10835;50.148;19.760;2022-11-22T03:08:49;18.20;42.70
21355;DHT22;10835;50.148;19.760;2022-11-22T03:11:22;18.10;42.40
21355;DHT22;10835;50.148;19.760;2022-11-22T03:13:51;17.80;42.40
21355;DHT22;10835;50.148;19.760;2022-11-22T03:16:20;17.90;43.40
21355;DHT22;10835;50.148;19.760;2022-11-22T03:18:48;17.90;43.40
21355;DHT22;10835;50.148;19.760;2022-11-22T03:21:16;17.80;42.20
21355;DHT22;10835;50.148;19.760;2022-11-22T03:23:44;17.50;42.80
21355;DHT22;10835;50.148;19.760;2022-11-22T03:26:12;17.50;42.60
21355;DHT22;10835;50.148;19.760;2022-11-22T03:28:40;17.40;42.80
21355;DHT22;10835;50.148;19.760;2022-11-22T03:31:08;17.70;43.00
21355;DHT22;10835;50.148;19.760;2022-11-22T03:33:37;17.70;42.10
21355;DHT22;10835;50.148;19.760;2022-11-22T03:36:08;17.80;42.00
21355;DHT22;10835;50.148;19.760;2022-11-22T03:38:36;17.90;41.90
21355;DHT22;10835;50.148;19.760;2022-11-22T03:41:04;17.90;41.40
21355;DHT22;10835;50.148;19.760;2022-11-22T03:43:32;18.00;41.60
21355;DHT22;10835;50.148;19.760;2022-11-22T03:46:00;17.90;41.20
21355;DHT22;10835;50.148;19.760;2022-11-22T03:48:28;17.70;42.00
21355;DHT22;10835;50.148;19.760;2022-11-22T03:51:03;17.90;41.30
21355;DHT22;10835;50.148;19.760;2022-11-22T03:53:31;17.80;41.40
21355;DHT22;10835;50.148;19.760;2022-11-22T03:55:59;17.40;42.40
21355;DHT22;10835;50.148;19.760;2022-11-22T03:58:28;17.60;42.30
21355;DHT22;10835;50.148;19.760;2022-11-22T04:00:56;16.80;42.40
21355;DHT22;10835;50.148;19.760;2022-11-22T04:03:24;16.70;43.20
21355;DHT22;10835;50.148;19.760;2022-11-22T04:05:52;17.10;42.70
21355;DHT22;10835;50.148;19.760;2022-11-22T04:08:22;17.10;42.60
21355;DHT22;10835;50.148;19.760;2022-11-22T04:10:50;17.20;43.00
21355;DHT22;10835;50.148;19.760;2022-11-22T04:13:18;17.40;42.30
21355;DHT22;10835;50.148;19.760;2022-11-22T04:15:46;17.20;42.70
21355;DHT22;10835;50.148;19.760;2022-11-22T04:18:14;17.40;42.10
21355;DHT22;10835;50.148;19.760;2022-11-22T04:20:42;17.60;41.60
21355;DHT22;10835;50.148;19.760;2022-11-22T04:23:28;17.80;40.90
21355;DHT22;10835;50.148;19.760;2022-11-22T04:26:00;17.80;40.50
21355;DHT22;10835;50.148;19.760;2022-11-22T04:28:27;17.70;41.30
21355;DHT22;10835;50.148;19.760;2022-11-22T04:31:15;17.70;41.20
21355;DHT22;10835;50.148;19.760;2022-11-22T04:34:00;17.70;40.50
21355;DHT22;10835;50.148;19.760;2022-11-22T04:36:28;17.70;40.30
21355;DHT22;10835;50.148;19.760;2022-11-22T04:38:57;17.60;41.10
21355;DHT22;10835;50.148;19.760;2022-11-22T04:41:25;17.40;41.80
21355;DHT22;10835;50.148;19.760;2022-11-22T04:43:53;17.50;41.70
21355;DHT22;10835;50.148;19.760;2022-11-22T04:46:39;17.30;41.60
21355;DHT22;10835;50.148;19.760;2022-11-22T04:49:07;16.90;41.60
21355;DHT22;10835;50.148;19.760;2022-11-22T04:51:35;17.00;42.20
21355;DHT22;10835;50.148;19.760;2022-11-22T04:54:22;17.10;41.80
21355;DHT22;10835;50.148;19.760;2022-11-22T04:56:50;16.50;42.40
21355;DHT22;10835;50.148;19.760;2022-11-22T04:59:18;16.90;42.40
21355;DHT22;10835;50.148;19.760;2022-11-22T05:01:46;17.00;42.00
21355;DHT22;10835;50.148;19.760;2022-11-22T05:04:14;16.90;41.90
21355;DHT22;10835;50.148;19.760;2022-11-22T05:06:42;17.00;42.10
21355;DHT22;10835;50.148;19.760;2022-11-22T05:09:10;17.10;42.00
21355;DHT22;10835;50.148;19.760;2022-11-22T05:11:39;17.30;41.10
21355;DHT22;10835;50.148;19.760;2022-11-22T05:14:08;17.50;40.60
21355;DHT22;10835;50.148;19.760;2022-11-22T05:16:36;17.50;40.40
21355;DHT22;10835;50.148;19.760;2022-11-22T05:19:04;17.70;40.10
21355;DHT22;10835;50.148;19.760;2022-11-22T05:21:32;17.60;39.90
21355;DHT22;10835;50.148;19.760;2022-11-22T05:24:03;16.60;41.10
21355;DHT22;10835;50.148;19.760;2022-11-22T05:26:31;17.00;40.90
21355;DHT22;10835;50.148;19.760;2022-11-22T05:29:04;16.80;41.70
21355;DHT22;10835;50.148;19.760;2022-11-22T05:31:33;16.80;41.80
21355;DHT22;10835;50.148;19.760;2022-11-22T05:34:02;16.70;42.20
21355;DHT22;10835;50.148;19.760;2022-11-22T05:36:31;16.40;42.60
21355;DHT22;10835;50.148;19.760;2022-11-22T05:39:02;16.70;41.70
21355;DHT22;10835;50.148;19.760;2022-11-22T05:41:30;16.20;42.80
21355;DHT22;10835;50.148;19.760;2022-11-22T05:43:59;16.50;42.70
21355;DHT22;10835;50.148;19.760;2022-11-22T05:46:29;16.70;41.90
21355;DHT22;10835;50.148;19.760;2022-11-22T05:49:00;16.80;42.50
21355;DHT22;10835;50.148;19.760;2022-11-22T05:51:28;16.90;41.80
21355;DHT22;10835;50.148;19.760;2022-11-22T05:54:01;16.90;42.00
21355;DHT22;10835;50.148;19.760;2022-11-22T05:56:29;16.70;41.70
21355;DHT22;10835;50.148;19.760;2022-11-22T05:58:57;16.10;41.80
21355;DHT22;10835;50.148;19.760;2022-11-22T06:01:25;16.10;43.30
21355;DHT22;10835;50.148;19.760;2022-11-22T06:03:54;15.90;43.90
21355;DHT22;10835;50.148;19.760;2022-11-22T06:06:22;16.10;43.60
21355;DHT22;10835;50.148;19.760;2022-11-22T06:08:50;15.60;44.10
21355;DHT22;10835;50.148;19.760;2022-11-22T06:11:20;16.30;44.40
21355;DHT22;10835;50.148;19.760;2022-11-22T06:13:50;16.80;43.10
21355;DHT22;10835;50.148;19.760;2022-11-22T06:16:19;17.10;42.00
21355;DHT22;10835;50.148;19.760;2022-11-22T06:18:47;17.40;41.40
21355;DHT22;10835;50.148;19.760;2022-11-22T06:21:19;17.40;40.80
21355;DHT22;10835;50.148;19.760;2022-11-22T06:23:54;17.50;40.60
21355;DHT22;10835;50.148;19.760;2022-11-22T06:26:24;17.80;40.20
21355;DHT22;10835;50.148;19.760;2022-11-22T06:28:53;17.80;39.60
21355;DHT22;10835;50.148;19.760;2022-11-22T06:31:23;17.90;39.20
21355;DHT22;10835;50.148;19.760;2022-11-22T06:33:52;17.80;39.50
21355;DHT22;10835;50.148;19.760;2022-11-22T06:36:23;17.50;40.00
21355;DHT22;10835;50.148;19.760;2022-11-22T06:38:51;16.80;40.60
21355;DHT22;10835;50.148;19.760;2022-11-22T06:41:21;16.60;41.80
21355;DHT22;10835;50.148;19.760;2022-11-22T06:43:51;16.80;42.30
21355;DHT22;10835;50.148;19.760;2022-11-22T06:46:21;17.00;42.10
21355;DHT22;10835;50.148;19.760;2022-11-22T06:48:50;17.10;42.40
21355;DHT22;10835;50.148;19.760;2022-11-22T06:51:21;17.50;41.80
21355;DHT22;10835;50.148;19.760;2022-11-22T06:53:50;17.50;40.80
21355;DHT22;10835;50.148;19.760;2022-11-22T06:56:20;17.30;41.60
21355;DHT22;10835;50.148;19.760;2022-11-22T06:58:49;17.00;41.70
21355;DHT22;10835;50.148;19.760;2022-11-22T07:01:19;17.50;42.20
21355;DHT22;10835;50.148;19.760;2022-11-22T07:03:48;17.50;42.20
21355;DHT22;10835;50.148;19.760;2022-11-22T07:06:17;17.70;42.60
21355;DHT22;10835;50.148;19.760;2022-11-22T07:08:47;17.90;42.20
21355;DHT22;10835;50.148;19.760;2022-11-22T07:11:17;18.20;42.00
21355;DHT22;10835;50.148;19.760;2022-11-22T07:13:47;18.00;41.70
21355;DHT22;10835;50.148;19.760;2022-11-22T07:16:17;17.50;42.20
21355;DHT22;10835;50.148;19.760;2022-11-22T07:18:48;17.70;43.40
21355;DHT22;10835;50.148;19.760;2022-11-22T07:21:19;17.80;43.30
21355;DHT22;10835;50.148;19.760;2022-11-22T07:23:52;18.30;43.10
21355;DHT22;10835;50.148;19.760;2022-11-22T07:26:22;18.60;42.90
21355;DHT22;10835;50.148;19.760;2022-11-22T07:28:50;18.70;42.60
21355;DHT22;10835;50.148;19.760;2022-11-22T07:31:19;18.90;42.30
21355;DHT22;10835;50.148;19.760;2022-11-22T07:33:47;19.20;41.80
21355;DHT22;10835;50.148;19.760;2022-11-22T07:36:17;19.40;42.10
21355;DHT22;10835;50.148;19.760;2022-11-22T07:38:46;19.50;41.50
21355;DHT22;10835;50.148;19.760;2022-11-22T07:41:17;19.70;41.40
21355;DHT22;10835;50.148;19.760;2022-11-22T07:43:45;19.80;41.10
21355;DHT22;10835;50.148;19.760;2022-11-22T07:46:21;19.90;41.10
21355;DHT22;10835;50.148;19.760;2022-11-22T07:48:49;20.00;40.90
21355;DHT22;10835;50.148;19.760;2022-11-22T07:51:18;20.10;40.80
21355;DHT22;10835;50.148;19.760;2022-11-22T07:53:47;19.90;41.50
21355;DHT22;10835;50.148;19.760;2022-11-22T07:56:18;20.00;41.40
21355;DHT22;10835;50.148;19.760;2022-11-22T07:58:46;20.10;41.60
21355;DHT22;10835;50.148;19.760;2022-11-22T08:01:16;20.20;41.70
21355;DHT22;10835;50.148;19.760;2022-11-22T08:03:45;20.50;41.00
21355;DHT22;10835;50.148;19.760;2022-11-22T08:06:13;20.60;40.90
21355;DHT22;10835;50.148;19.760;2022-11-22T08:08:42;20.60;40.90
21355;DHT22;10835;50.148;19.760;2022-11-22T08:11:11;20.70;40.90
21355;DHT22;10835;50.148;19.760;2022-11-22T08:13:40;20.80;40.80
21355;DHT22;10835;50.148;19.760;2022-11-22T08:16:11;20.90;40.60
21355;DHT22;10835;50.148;19.760;2022-11-22T08:18:44;21.10;40.30
21355;DHT22;10835;50.148;19.760;2022-11-22T08:21:12;21.00;40.70
21355;DHT22;10835;50.148;19.760;2022-11-22T08:23:41;21.00;40.70
21355;DHT22;10835;50.148;19.760;2022-11-22T08:26:12;21.10;40.70
21355;DHT22;10835;50.148;19.760;2022-11-22T08:28:42;21.10;40.60
21355;DHT22;10835;50.148;19.760;2022-11-22T08:31:12;21.30;40.60
21355;DHT22;10835;50.148;19.760;2022-11-22T08:33:40;21.20;41.10
21355;DHT22;10835;50.148;19.760;2022-11-22T08:36:09;21.20;40.90
21355;DHT22;10835;50.148;19.760;2022-11-22T08:38:37;21.30;40.70
21355;DHT22;10835;50.148;19.760;2022-11-22T08:41:06;21.30;40.80
21355;DHT22;10835;50.148;19.760;2022-11-22T08:43:34;21.40;40.70
21355;DHT22;10835;50.148;19.760;2022-11-22T08:46:03;21.50;40.50
21355;DHT22;10835;50.148;19.760;2022-11-22T08:48:33;21.70;40.00
21355;DHT22;10835;50.148;19.760;2022-11-22T08:51:03;21.90;40.10
21355;DHT22;10835;50.148;19.760;2022-11-22T08:53:32;21.90;40.30
21355;DHT22;10835;50.148;19.760;2022-11-22T08:56:02;21.50;40.70
21355;DHT22;10835;50.148;19.760;2022-11-22T08:58:31;21.70;40.70
21355;DHT22;10835;50.148;19.760;2022-11-22T09:01:04;21.50;40.70
21355;DHT22;10835;50.148;19.760;2022-11-22T09:03:33;21.80;40.90
21355;DHT22;10835;50.148;19.760;2022-11-22T09:06:02;21.90;40.20
21355;DHT22;10835;50.148;19.760;2022-11-22T09:08:50;22.00;40.20
21355;DHT22;10835;50.148;19.760;2022-11-22T09:11:38;22.10;39.80
21355;DHT22;10835;50.148;19.760;2022-11-22T09:14:06;22.30;39.50
21355;DHT22;10835;50.148;19.760;2022-11-22T09:16:36;22.30;39.00
21355;DHT22;10835;50.148;19.760;2022-11-22T09:19:04;22.00;39.90
21355;DHT22;10835;50.148;19.760;2022-11-22T09:21:32;22.40;39.50
21355;DHT22;10835;50.148;19.760;2022-11-22T09:24:00;21.80;40.10
21355;DHT22;10835;50.148;19.760;2022-11-22T09:26:28;22.10;40.00
21355;DHT22;10835;50.148;19.760;2022-11-22T09:28:56;22.40;39.70
21355;DHT22;10835;50.148;19.760;2022-11-22T09:31:24;22.70;38.50
21355;DHT22;10835;50.148;19.760;2022-11-22T09:33:53;22.80;37.80
21355;DHT22;10835;50.148;19.760;2022-11-22T09:36:23;22.80;37.80
21355;DHT22;10835;50.148;19.760;2022-11-22T09:38:53;22.90;38.00
21355;DHT22;10835;50.148;19.760;2022-11-22T09:41:44;22.30;38.60
21355;DHT22;10835;50.148;19.760;2022-11-22T09:44:22;22.40;39.00
21355;DHT22;10835;50.148;19.760;2022-11-22T09:46:58;22.60;38.50
21355;DHT22;10835;50.148;19.760;2022-11-22T09:49:34;22.60;38.80
21355;DHT22;10835;50.148;19.760;2022-11-22T09:52:12;22.50;39.10
21355;DHT22;10835;50.148;19.760;2022-11-22T09:54:45;22.70;38.10
21355;DHT22;10835;50.148;19.760;2022-11-22T09:57:17;22.80;38.60
21355;DHT22;10835;50.148;19.760;2022-11-22T09:59:49;22.90;38.70
21355;DHT22;10835;50.148;19.760;2022-11-22T10:02:23;22.90;38.60
21355;DHT22;10835;50.148;19.760;2022-11-22T10:04:56;22.80;37.60
21355;DHT22;10835;50.148;19.760;2022-11-22T10:07:28;22.90;38.20
21355;DHT22;10835;50.148;19.760;2022-11-22T10:10:02;22.70;38.00
21355;DHT22;10835;50.148;19.760;2022-11-22T10:12:35;22.80;37.90
21355;DHT22;10835;50.148;19.760;2022-11-22T10:15:10;22.60;38.20
21355;DHT22;10835;50.148;19.760;2022-11-22T10:17:50;22.50;38.40
21355;DHT22;10835;50.148;19.760;2022-11-22T10:20:21;22.70;38.20
21355;DHT22;10835;50.148;19.760;2022-11-22T10:22:50;22.60;37.80
21355;DHT22;10835;50.148;19.760;2022-11-22T10:25:20;22.60;37.50
21355;DHT22;10835;50.148;19.760;2022-11-22T10:27:52;22.70;38.60
21355;DHT22;10835;50.148;19.760;2022-11-22T10:30:31;22.80;38.00
21355;DHT22;10835;50.148;19.760;2022-11-22T10:33:08;23.00;38.00
21355;DHT22;10835;50.148;19.760;2022-11-22T10:35:51;22.90;38.20
21355;DHT22;10835;50.148;19.760;2022-11-22T10:38:46;22.80;37.70
21355;DHT22;10835;50.148;19.760;2022-11-22T10:41:28;22.50;38.50
21355;DHT22;10835;50.148;19.760;2022-11-22T10:44:06;22.50;38.40
21355;DHT22;10835;50.148;19.760;2022-11-22T10:46:46;22.80;38.30
21355;DHT22;10835;50.148;19.760;2022-11-22T10:49:28;22.80;37.70
21355;DHT22;10835;50.148;19.760;2022-11-22T10:52:10;23.00;37.70
21355;DHT22;10835;50.148;19.760;2022-11-22T10:54:43;22.90;37.40
21355;DHT22;10835;50.148;19.760;2022-11-22T10:57:17;22.50;38.70
21355;DHT22;10835;50.148;19.760;2022-11-22T10:59:57;22.80;38.30
21355;DHT22;10835;50.148;19.760;2022-11-22T11:02:54;22.90;37.40
21355;DHT22;10835;50.148;19.760;2022-11-22T11:05:31;23.10;36.50
21355;DHT22;10835;50.148;19.760;2022-11-22T11:08:01;22.90;36.00
21355;DHT22;10835;50.148;19.760;2022-11-22T11:10:50;22.70;36.80
21355;DHT22;10835;50.148;19.760;2022-11-22T11:13:22;22.70;36.30
21355;DHT22;10835;50.148;19.760;2022-11-22T11:15:53;22.70;36.40
21355;DHT22;10835;50.148;19.760;2022-11-22T11:18:26;22.90;36.50
21355;DHT22;10835;50.148;19.760;2022-11-22T11:20:55;23.00;36.20
21355;DHT22;10835;50.148;19.760;2022-11-22T11:23:24;23.10;35.70
21355;DHT22;10835;50.148;19.760;2022-11-22T11:25:52;22.80;36.10
21355;DHT22;10835;50.148;19.760;2022-11-22T11:28:21;22.80;36.30
21355;DHT22;10835;50.148;19.760;2022-11-22T11:30:53;23.10;36.30
21355;DHT22;10835;50.148;19.760;2022-11-22T11:33:27;23.20;36.40
21355;DHT22;10835;50.148;19.760;2022-11-22T11:36:05;23.10;35.80
21355;DHT22;10835;50.148;19.760;2022-11-22T11:38:37;23.20;35.80
21355;DHT22;10835;50.148;19.760;2022-11-22T11:41:23;22.90;35.90
21355;DHT22;10835;50.148;19.760;2022-11-22T11:43:52;22.90;36.30
21355;DHT22;10835;50.148;19.760;2022-11-22T11:46:24;22.90;36.80
21355;DHT22;10835;50.148;19.760;2022-11-22T11:49:07;22.90;36.70
21355;DHT22;10835;50.148;19.760;2022-11-22T11:51:37;22.60;36.60
21355;DHT22;10835;50.148;19.760;2022-11-22T11:54:12;22.50;36.60
21355;DHT22;10835;50.148;19.760;2022-11-22T11:56:49;22.30;37.00
21355;DHT22;10835;50.148;19.760;2022-11-22T11:59:18;21.90;37.50
21355;DHT22;10835;50.148;19.760;2022-11-22T12:02:02;22.10;37.90
21355;DHT22;10835;50.148;19.760;2022-11-22T12:04:34;22.20;37.40
21355;DHT22;10835;50.148;19.760;2022-11-22T12:07:09;22.50;37.50
21355;DHT22;10835;50.148;19.760;2022-11-22T12:09:48;22.50;37.40
21355;DHT22;10835;50.148;19.760;2022-11-22T12:12:41;22.40;37.10
21355;DHT22;10835;50.148;19.760;2022-11-22T12:15:15;22.20;37.90
21355;DHT22;10835;50.148;19.760;2022-11-22T12:17:51;22.30;37.70
21355;DHT22;10835;50.148;19.760;2022-11-22T12:20:24;22.30;37.70
21355;DHT22;10835;50.148;19.760;2022-11-22T12:23:10;22.20;37.50
21355;DHT22;10835;50.148;19.760;2022-11-22T12:25:42;22.20;38.20
21355;DHT22;10835;50.148;19.760;2022-11-22T12:28:16;22.10;37.90
21355;DHT22;10835;50.148;19.760;2022-11-22T12:30:52;22.10;38.40
21355;DHT22;10835;50.148;19.760;2022-11-22T12:33:25;22.00;38.20
21355;DHT22;10835;50.148;19.760;2022-11-22T12:35:54;21.30;38.50
21355;DHT22;10835;50.148;19.760;2022-11-22T12:38:27;20.60;39.50
21355;DHT22;10835;50.148;19.760;2022-11-22T12:41:01;20.50;40.60
21355;DHT22;10835;50.148;19.760;2022-11-22T12:43:35;20.10;40.90
21355;DHT22;10835;50.148;19.760;2022-11-22T12:46:08;20.10;41.50
21355;DHT22;10835;50.148;19.760;2022-11-22T12:48:41;19.70;41.60
21355;DHT22;10835;50.148;19.760;2022-11-22T12:51:20;20.00;42.10
21355;DHT22;10835;50.148;19.760;2022-11-22T12:53:51;20.40;41.90
21355;DHT22;10835;50.148;19.760;2022-11-22T12:56:26;20.30;41.20
21355;DHT22;10835;50.148;19.760;2022-11-22T12:59:03;19.80;41.50
21355;DHT22;10835;50.148;19.760;2022-11-22T13:01:37;19.90;42.40
21355;DHT22;10835;50.148;19.760;2022-11-22T13:04:14;19.90;42.00
21355;DHT22;10835;50.148;19.760;2022-11-22T13:06:51;19.70;42.40
21355;DHT22;10835;50.148;19.760;2022-11-22T13:09:22;19.90;42.50
21355;DHT22;10835;50.148;19.760;2022-11-22T13:11:58;19.70;42.20
21355;DHT22;10835;50.148;19.760;2022-11-22T13:14:31;19.60;42.60
21355;DHT22;10835;50.148;19.760;2022-11-22T13:17:05;19.60;42.80
21355;DHT22;10835;50.148;19.760;2022-11-22T13:19:39;19.80;42.90
21355;DHT22;10835;50.148;19.760;2022-11-22T13:22:15;19.50;42.40
21355;DHT22;10835;50.148;19.760;2022-11-22T13:27:48;20.00;42.60
21355;DHT22;10835;50.148;19.760;2022-11-22T13:30:19;20.10;42.50
21355;DHT22;10835;50.148;19.760;2022-11-22T13:32:49;20.40;42.20
21355;DHT22;10835;50.148;19.760;2022-11-22T13:35:25;20.70;41.70
21355;DHT22;10835;50.148;19.760;2022-11-22T13:37:55;20.70;41.20
21355;DHT22;10835;50.148;19.760;2022-11-22T13:40:30;20.60;41.70
21355;DHT22;10835;50.148;19.760;2022-11-22T13:43:45;20.70;41.60
21355;DHT22;10835;50.148;19.760;2022-11-22T13:46:51;20.70;41.40
21355;DHT22;10835;50.148;19.760;2022-11-22T13:49:34;20.50;41.70
21355;DHT22;10835;50.148;19.760;2022-11-22T13:52:48;20.40;41.90
21355;DHT22;10835;50.148;19.760;2022-11-22T13:55:26;20.10;42.20
21355;DHT22;10835;50.148;19.760;2022-11-22T13:57:54;19.60;42.70
21355;DHT22;10835;50.148;19.760;2022-11-22T14:00:44;19.70;42.90
21355;DHT22;10835;50.148;19.760;2022-11-22T14:03:34;19.50;43.60
21355;DHT22;10835;50.148;19.760;2022-11-22T14:06:25;19.70;43.50
21355;DHT22;10835;50.148;19.760;2022-11-22T14:15:14;19.30;43.70
21355;DHT22;10835;50.148;19.760;2022-11-22T14:17:52;19.10;44.00
21355;DHT22;10835;50.148;19.760;2022-11-22T14:20:41;18.90;44.40
21355;DHT22;10835;50.148;19.760;2022-11-22T14:23:20;19.10;44.50
21355;DHT22;10835;50.148;19.760;2022-11-22T14:26:10;19.00;44.00
21355;DHT22;10835;50.148;19.760;2022-11-22T14:31:55;18.50;44.80
21355;DHT22;10835;50.148;19.760;2022-11-22T14:34:29;18.70;44.80
21355;DHT22;10835;50.148;19.760;2022-11-22T14:37:33;18.30;44.80
21355;DHT22;10835;50.148;19.760;2022-11-22T14:40:35;18.40;45.40
21355;DHT22;10835;50.148;19.760;2022-11-22T14:43:18;19.00;44.80
21355;DHT22;10835;50.148;19.760;2022-11-22T14:45:50;19.10;44.20
21355;DHT22;10835;50.148;19.760;2022-11-22T14:48:20;19.50;44.20
21355;DHT22;10835;50.148;19.760;2022-11-22T14:50:51;19.40;43.80
21355;DHT22;10835;50.148;19.760;2022-11-22T14:53:29;19.50;43.80
21355;DHT22;10835;50.148;19.760;2022-11-22T14:56:06;19.90;43.40
21355;DHT22;10835;50.148;19.760;2022-11-22T14:58:37;19.30;43.10
21355;DHT22;10835;50.148;19.760;2022-11-22T15:01:24;18.90;44.20
21355;DHT22;10835;50.148;19.760;2022-11-22T15:04:29;19.00;44.70
21355;DHT22;10835;50.148;19.760;2022-11-22T15:07:49;19.10;44.70
21355;DHT22;10835;50.148;19.760;2022-11-22T15:11:09;18.80;44.80
21355;DHT22;10835;50.148;19.760;2022-11-22T15:13:53;18.30;45.70
21355;DHT22;10835;50.148;19.760;2022-11-22T15:16:28;18.30;45.90
21355;DHT22;10835;50.148;19.760;2022-11-22T15:19:31;18.10;46.30
21355;DHT22;10835;50.148;19.760;2022-11-22T15:22:25;17.90;46.50
21355;DHT22;10835;50.148;19.760;2022-11-22T15:25:17;18.00;46.90
21355;DHT22;10835;50.148;19.760;2022-11-22T15:28:05;18.20;46.80
21355;DHT22;10835;50.148;19.760;2022-11-22T15:30:58;18.30;46.70
21355;DHT22;10835;50.148;19.760;2022-11-22T15:33:49;18.40;46.20
21355;DHT22;10835;50.148;19.760;2022-11-22T15:36:45;18.10;46.40
21355;DHT22;10835;50.148;19.760;2022-11-22T15:39:37;18.30;46.10
21355;DHT22;10835;50.148;19.760;2022-11-22T15:42:27;18.10;46.60
21355;DHT22;10835;50.148;19.760;2022-11-22T15:45:15;18.40;46.80
21355;DHT22;10835;50.148;19.760;2022-11-22T15:48:05;18.40;46.50
21355;DHT22;10835;50.148;19.760;2022-11-22T15:51:16;18.70;46.20
21355;DHT22;10835;50.148;19.760;2022-11-22T15:54:16;19.10;45.90
21355;DHT22;10835;50.148;19.760;2022-11-22T15:57:24;19.20;44.70
21355;DHT22;10835;50.148;19.760;2022-11-22T15:59:56;19.30;44.90
21355;DHT22;10835;50.148;19.760;2022-11-22T16:02:26;19.70;44.70
21355;DHT22;10835;50.148;19.760;2022-11-22T16:04:57;19.80;44.10
21355;DHT22;10835;50.148;19.760;2022-11-22T16:07:47;19.50;44.10